Time;durP1;ratioP1;P1;durP2;ratioP2;P2;SDS_P1;SDS_P2;PMS_P1;PMS_P2;Temp;Humidity;BMP_temperature;BMP_pressure;BME280_temperature;BME280_humidity;BME280_pressure;Samples;Min_cycle;Max_cycle;Signal;HPM_P1;HPM_P2
2022/01/31 00:00:54;;;;;;;51.47;24.73;;;;;;;-1.06;100.00;98090.47;5049293;28;20025;-75
2022/01/31 00:03:19;;;;;;;64.22;27.15;;;;;;;-0.98;100.00;98084.00;5055403;28;20025;-82
2022/01/31 00:05:45;;;;;;;56.70;26.55;;;;;;;-0.98;100.00;98086.69;5052769;28;20048;-74
2022/01/31 00:08:10;;;;;;;56.00;27.15;;;;;;;-1.07;100.00;98072.72;5052334;28;20028;-75
2022/01/31 00:10:36;;;;;;;54.90;26.80;;;;;;;-1.09;100.00;98074.78;5052261;28;20043;-75
2022/01/31 00:13:08;;;;;;;53.83;25.95;;;;;;;-1.10;100.00;98078.53;5052258;28;20147;-75
2022/01/31 00:15:41;;;;;;;63.58;27.63;;;;;;;-1.26;100.00;98085.25;5052218;28;20052;-74
2022/01/31 00:18:07;;;;;;;50.10;24.58;;;;;;;-1.25;100.00;98092.25;5050947;28;20029;-76
2022/01/31 00:20:33;;;;;;;52.45;27.15;;;;;;;-1.28;100.00;98089.16;5050427;28;20041;-76
2022/01/31 00:22:58;;;;;;;55.67;25.77;;;;;;;-1.32;100.00;98096.84;5050488;28;20021;-74
2022/01/31 00:25:24;;;;;;;57.50;26.42;;;;;;;-1.33;100.00;98095.19;5051969;28;20024;-75
2022/01/31 00:27:50;;;;;;;53.85;26.73;;;;;;;-1.44;100.00;98101.25;5051726;28;20031;-75
2022/01/31 00:30:16;;;;;;;55.83;26.65;;;;;;;-1.37;100.00;98082.44;5051762;28;20031;-75
2022/01/31 00:32:42;;;;;;;51.30;25.70;;;;;;;-1.45;100.00;98077.34;5051589;28;20500;-74
2022/01/31 00:35:08;;;;;;;53.38;26.67;;;;;;;-1.45;100.00;98070.13;5051702;28;20025;-75
2022/01/31 00:37:34;;;;;;;60.58;25.88;;;;;;;-1.36;100.00;98065.31;5051619;28;20084;-75
2022/01/31 00:40:00;;;;;;;55.83;26.55;;;;;;;-1.36;100.00;98063.44;5051531;28;20482;-76
2022/01/31 00:42:27;;;;;;;60.83;26.13;;;;;;;-1.32;100.00;98056.63;5051170;28;20017;-75
2022/01/31 00:47:31;;;;;;;60.40;27.00;;;;;;;-1.42;100.00;98052.75;5051359;28;20060;-78
2022/01/31 00:50:10;;;;;;;59.03;26.05;;;;;;;-1.55;100.00;98059.03;5050018;28;20032;-76
2022/01/31 00:52:38;;;;;;;63.05;26.75;;;;;;;-1.57;100.00;98045.03;5051848;28;20029;-75
2022/01/31 00:55:04;;;;;;;55.35;26.70;;;;;;;-1.73;100.00;98035.63;5051353;28;20033;-75
2022/01/31 00:57:30;;;;;;;58.10;26.40;;;;;;;-1.78;100.00;98042.66;5051964;28;20049;-75
2022/01/31 00:59:55;;;;;;;55.80;26.55;;;;;;;-1.70;100.00;98024.50;5055243;28;20066;-75
2022/01/31 01:02:22;;;;;;;58.65;27.60;;;;;;;-1.65;100.00;98029.19;5052609;28;20493;-76
2022/01/31 01:04:48;;;;;;;60.20;28.30;;;;;;;-1.51;100.00;98017.34;5051976;28;20021;-75
2022/01/31 01:07:14;;;;;;;56.47;26.90;;;;;;;-1.56;100.00;98011.78;5051736;28;20500;-76
2022/01/31 01:09:44;;;;;;;56.47;27.23;;;;;;;-1.48;100.00;98011.56;5051290;28;20036;-76
2022/01/31 01:12:10;;;;;;;56.92;26.05;;;;;;;-1.51;100.00;98009.31;5051185;28;20025;-76
2022/01/31 01:14:36;;;;;;;57.38;29.17;;;;;;;-1.68;100.00;98016.22;5050627;28;20029;-75
2022/01/31 01:17:02;;;;;;;55.58;27.85;;;;;;;-1.71;100.00;98013.97;5050637;28;20091;-77
2022/01/31 01:19:27;;;;;;;66.47;28.50;;;;;;;-1.77;100.00;98006.78;5050689;28;20505;-76
2022/01/31 01:21:53;;;;;;;52.60;25.05;;;;;;;-1.75;100.00;98002.03;5049127;28;20108;-74
2022/01/31 01:24:18;;;;;;;54.08;25.67;;;;;;;-1.78;100.00;97994.41;5052237;28;20056;-76
2022/01/31 01:26:44;;;;;;;48.72;24.38;;;;;;;-1.81;100.00;97990.31;5055011;28;20021;-76
2022/01/31 01:29:10;;;;;;;53.05;26.73;;;;;;;-1.78;100.00;97983.69;5054825;28;20025;-75
2022/01/31 01:31:36;;;;;;;52.50;24.92;;;;;;;-1.85;100.00;97981.06;5050862;28;20545;-76
2022/01/31 01:34:01;;;;;;;57.05;27.83;;;;;;;-1.88;100.00;97975.31;5050666;28;20040;-76
2022/01/31 01:36:28;;;;;;;57.33;27.60;;;;;;;-1.93;100.00;97975.13;5050736;28;20036;-76
2022/01/31 01:38:53;;;;;;;58.22;28.02;;;;;;;-1.92;100.00;97974.13;5052966;28;20048;-77
2022/01/31 01:41:19;;;;;;;55.80;26.23;;;;;;;-1.88;100.00;97972.66;5059025;28;20017;-74
2022/01/31 01:43:44;;;;;;;57.83;28.75;;;;;;;-1.87;100.00;97971.59;5061795;28;20429;-75
2022/01/31 01:46:10;;;;;;;56.38;28.88;;;;;;;-1.87;100.00;97959.03;5059081;28;20032;-75
2022/01/31 01:48:36;;;;;;;53.40;28.20;;;;;;;-1.77;100.00;97959.38;5049546;28;20039;-76
2022/01/31 01:51:02;;;;;;;53.25;26.77;;;;;;;-1.76;100.00;97949.47;5050542;28;20040;-74
2022/01/31 01:53:28;;;;;;;52.88;26.55;;;;;;;-1.80;100.00;97930.31;5055038;28;20116;-79
2022/01/31 01:55:54;;;;;;;53.05;25.95;;;;;;;-1.76;100.00;97922.66;5056266;28;20632;-74
2022/01/31 01:58:24;;;;;;;53.45;26.98;;;;;;;-1.68;100.00;97909.81;5054566;28;20028;-74
2022/01/31 02:01:02;;;;;;;50.65;26.52;;;;;;;-1.66;100.00;97902.34;5054881;28;20033;-74
2022/01/31 02:03:30;;;;;;;57.40;27.35;;;;;;;-1.64;100.00;97889.56;5054502;28;20025;-74
2022/01/31 02:05:56;;;;;;;54.95;26.70;;;;;;;-1.71;100.00;97890.66;5053320;28;20394;-76
2022/01/31 02:08:23;;;;;;;56.92;27.48;;;;;;;-1.68;100.00;97890.22;5054805;28;20029;-76
2022/01/31 02:10:48;;;;;;;49.97;24.73;;;;;;;-1.74;100.00;97883.88;5054710;28;20035;-76
2022/01/31 02:13:17;;;;;;;51.92;25.92;;;;;;;-1.70;100.00;97874.38;5053925;28;20119;-75
2022/01/31 02:15:50;;;;;;;56.97;27.05;;;;;;;-1.67;100.00;97873.09;5054368;28;20061;-75
2022/01/31 02:18:18;;;;;;;54.03;27.20;;;;;;;-1.63;100.00;97863.59;5054026;28;20136;-74
2022/01/31 02:20:44;;;;;;;55.20;26.02;;;;;;;-1.77;100.00;97867.41;5053062;28;20049;-75
2022/01/31 02:23:12;;;;;;;50.55;25.63;;;;;;;-1.77;100.00;97864.72;5054164;28;20461;-75
2022/01/31 02:25:56;;;;;;;48.10;24.35;;;;;;;-1.76;100.00;97874.44;5051248;28;20078;-75
2022/01/31 02:28:24;;;;;;;54.78;25.25;;;;;;;-1.71;100.00;97869.22;5052710;28;20029;-75
2022/01/31 02:30:50;;;;;;;46.15;24.52;;;;;;;-1.72;100.00;97870.25;5051746;28;20067;-76
2022/01/31 02:33:18;;;;;;;55.40;26.13;;;;;;;-1.79;100.00;97874.88;5052237;28;20483;-75
2022/01/31 02:35:44;;;;;;;54.75;25.23;;;;;;;-1.76;100.00;97871.75;5053910;28;20112;-76
2022/01/31 02:38:09;;;;;;;44.10;23.88;;;;;;;-1.68;100.00;97879.50;5053890;28;20108;-74
2022/01/31 02:40:35;;;;;;;49.30;26.25;;;;;;;-1.61;100.00;97872.22;5053829;28;20498;-76
2022/01/31 02:43:00;;;;;;;53.45;26.65;;;;;;;-1.59;100.00;97863.94;5054168;28;20025;-76
2022/01/31 02:45:26;;;;;;;53.55;26.60;;;;;;;-1.60;100.00;97868.50;5053599;28;20024;-76
2022/01/31 02:47:55;;;;;;;54.72;25.70;;;;;;;-1.63;100.00;97869.75;5054089;28;20082;-76
2022/01/31 02:50:21;;;;;;;55.85;25.25;;;;;;;-1.67;100.00;97865.88;5056169;28;20040;-76
2022/01/31 02:52:49;;;;;;;48.25;24.33;;;;;;;-1.65;100.00;97868.34;5053560;28;20120;-76
2022/01/31 02:55:16;;;;;;;52.85;25.10;;;;;;;-1.70;100.00;97865.50;5053787;28;20040;-76
2022/01/31 02:57:42;;;;;;;54.58;26.38;;;;;;;-1.74;100.00;97858.94;5053152;28;20069;-74
2022/01/31 03:00:10;;;;;;;53.92;24.52;;;;;;;-1.70;100.00;97852.94;5053466;28;20144;-76
2022/01/31 03:02:35;;;;;;;48.08;24.25;;;;;;;-1.60;100.00;97852.44;5053328;28;20055;-75
2022/01/31 03:05:00;;;;;;;55.35;25.50;;;;;;;-1.60;100.00;97847.06;5052867;28;20051;-76
2022/01/31 03:07:26;;;;;;;55.38;24.98;;;;;;;-1.62;100.00;97843.75;5053393;28;20037;-76
2022/01/31 03:09:52;;;;;;;49.70;25.73;;;;;;;-1.58;100.00;97844.97;5053208;28;20124;-76
2022/01/31 03:12:17;;;;;;;52.50;25.42;;;;;;;-1.54;100.00;97838.13;5053715;28;20029;-76
2022/01/31 03:14:43;;;;;;;47.92;23.73;;;;;;;-1.48;100.00;97836.44;5053176;28;20036;-76
2022/01/31 03:17:09;;;;;;;48.72;22.63;;;;;;;-1.55;100.00;97828.44;5054384;28;20039;-76
2022/01/31 03:19:40;;;;;;;46.13;22.73;;;;;;;-1.46;100.00;97815.56;5054560;28;20116;-76
2022/01/31 03:22:06;;;;;;;45.78;23.17;;;;;;;-1.47;100.00;97804.00;5051871;28;20021;-75
2022/01/31 03:24:32;;;;;;;49.22;23.33;;;;;;;-1.44;100.00;97813.50;5052951;28;20557;-75
2022/01/31 03:26:57;;;;;;;46.00;23.83;;;;;;;-1.56;100.00;97821.44;5052730;28;20140;-75
2022/01/31 03:29:23;;;;;;;47.08;24.92;;;;;;;-1.52;100.00;97821.81;5053033;28;20043;-76
2022/01/31 03:31:48;;;;;;;49.55;24.23;;;;;;;-1.53;100.00;97828.22;5051902;28;20068;-76
2022/01/31 03:34:14;;;;;;;50.65;25.38;;;;;;;-1.54;100.00;97831.94;5053795;28;20051;-77
2022/01/31 03:36:39;;;;;;;51.05;24.70;;;;;;;-1.59;100.00;97832.59;5055704;28;20033;-75
2022/01/31 03:39:05;;;;;;;52.22;24.98;;;;;;;-1.72;100.00;97830.03;5056531;28;20493;-76
2022/01/31 03:41:30;;;;;;;53.10;25.55;;;;;;;-1.71;100.00;97812.94;5053202;28;20524;-76
2022/01/31 03:43:56;;;;;;;51.85;24.83;;;;;;;-1.76;100.00;97810.94;5054753;28;20108;-77
2022/01/31 03:46:22;;;;;;;49.25;23.80;;;;;;;-1.77;100.00;97805.78;5053707;28;20020;-75
2022/01/31 03:48:49;;;;;;;47.05;25.10;;;;;;;-1.68;100.00;97788.34;5052802;28;20032;-75
2022/01/31 03:51:14;;;;;;;54.55;24.20;;;;;;;-1.64;100.00;97785.03;5051467;28;20075;-76
2022/01/31 03:53:40;;;;;;;44.38;23.02;;;;;;;-1.53;100.00;97788.81;5053002;28;20029;-75
2022/01/31 03:56:05;;;;;;;46.15;23.42;;;;;;;-1.42;100.00;97787.25;5052970;28;20049;-75
2022/01/31 03:58:30;;;;;;;47.83;24.27;;;;;;;-1.39;100.00;97784.97;5053245;28;20032;-76
2022/01/31 04:00:56;;;;;;;49.63;24.17;;;;;;;-1.44;100.00;97784.00;5050638;28;20446;-76
2022/01/31 04:03:21;;;;;;;45.28;22.77;;;;;;;-1.40;100.00;97782.47;5041062;28;20375;-75
2022/01/31 04:05:47;;;;;;;50.00;24.65;;;;;;;-1.55;100.00;97782.03;5052218;28;20479;-76
2022/01/31 04:08:12;;;;;;;48.63;23.83;;;;;;;-1.60;100.00;97782.72;5038820;28;20059;-75
2022/01/31 04:10:38;;;;;;;45.05;24.05;;;;;;;-1.54;100.00;97786.38;5031681;28;20466;-76
2022/01/31 04:13:06;;;;;;;49.83;24.25;;;;;;;-1.43;100.00;97782.94;5030930;28;20067;-76
2022/01/31 04:15:35;;;;;;;43.03;23.13;;;;;;;-1.46;100.00;97794.94;5031396;28;20129;-76
2022/01/31 04:18:00;;;;;;;52.97;24.20;;;;;;;-1.49;100.00;97786.50;5031584;28;20032;-74
2022/01/31 04:20:26;;;;;;;46.35;23.73;;;;;;;-1.47;100.00;97776.41;5045414;28;20029;-76
2022/01/31 04:22:59;;;;;;;45.75;24.38;;;;;;;-1.55;100.00;97772.13;5051653;28;20028;-76
2022/01/31 04:25:30;;;;;;;44.85;24.05;;;;;;;-1.49;100.00;97778.47;5051517;28;20041;-75
2022/01/31 04:28:15;;;;;;;49.55;26.15;;;;;;;-1.55;100.00;97779.34;5051602;28;20029;-76
2022/01/31 04:30:46;;;;;;;47.35;24.75;;;;;;;-1.57;100.00;97762.69;5051731;28;20033;-76
2022/01/31 04:33:11;;;;;;;46.90;23.70;;;;;;;-1.64;100.00;97754.72;5051222;28;20482;-76
2022/01/31 04:35:36;;;;;;;50.58;25.50;;;;;;;-1.53;100.00;97755.81;5050892;28;20039;-76
2022/01/31 04:38:02;;;;;;;50.05;24.73;;;;;;;-1.55;100.00;97756.06;5051565;28;20036;-77
2022/01/31 04:40:28;;;;;;;47.67;23.08;;;;;;;-1.53;100.00;97750.44;5052837;28;20059;-76
2022/01/31 04:42:53;;;;;;;49.40;23.33;;;;;;;-1.56;100.00;97761.63;5051662;28;20025;-77
2022/01/31 04:45:19;;;;;;;49.38;25.45;;;;;;;-1.54;100.00;97763.06;5051209;28;20421;-75
2022/01/31 04:47:44;;;;;;;43.35;22.40;;;;;;;-1.58;100.00;97759.19;5051211;28;20033;-75
2022/01/31 04:50:10;;;;;;;48.83;24.55;;;;;;;-1.55;100.00;97758.72;5051155;28;20032;-76
2022/01/31 04:52:38;;;;;;;43.97;23.05;;;;;;;-1.42;100.00;97745.19;5049998;28;20021;-76
2022/01/31 04:55:05;;;;;;;53.35;24.10;;;;;;;-1.33;100.00;97746.50;5051130;28;20111;-76
2022/01/31 04:57:30;;;;;;;52.72;23.88;;;;;;;-1.41;100.00;97728.03;5032609;28;20085;-76
2022/01/31 04:59:56;;;;;;;51.42;24.08;;;;;;;-1.55;100.00;97709.66;5031267;28;20068;-78
2022/01/31 05:02:23;;;;;;;46.17;24.13;;;;;;;-1.68;100.00;97695.38;5030086;28;20455;-75
2022/01/31 05:04:48;;;;;;;49.42;23.80;;;;;;;-1.69;100.00;97709.78;5030959;28;20116;-76
2022/01/31 05:07:14;;;;;;;45.13;23.15;;;;;;;-1.57;100.00;97709.06;5029997;28;20038;-75
2022/01/31 05:09:39;;;;;;;47.38;22.00;;;;;;;-1.52;100.00;97707.34;5035504;28;20105;-76
2022/01/31 05:12:05;;;;;;;45.25;22.55;;;;;;;-1.45;100.00;97694.69;5064063;28;20029;-77
2022/01/31 05:14:31;;;;;;;49.33;23.73;;;;;;;-1.42;100.00;97696.91;5031086;28;20052;-74
2022/01/31 05:16:56;;;;;;;46.83;23.25;;;;;;;-1.45;100.00;97681.28;5030785;28;20033;-74
2022/01/31 05:19:22;;;;;;;49.72;22.70;;;;;;;-1.29;100.00;97683.34;5029209;28;20032;-77
2022/01/31 05:21:47;;;;;;;51.42;23.88;;;;;;;-1.16;100.00;97676.97;5030759;28;20033;-75
2022/01/31 05:24:13;;;;;;;45.05;21.85;;;;;;;-1.21;100.00;97679.50;5030336;28;20030;-77
2022/01/31 05:26:38;;;;;;;42.03;20.13;;;;;;;-1.34;100.00;97680.50;5030773;28;20048;-76
2022/01/31 05:29:04;;;;;;;43.75;21.33;;;;;;;-1.51;100.00;97666.09;5030811;28;20398;-78
2022/01/31 05:31:29;;;;;;;43.38;20.60;;;;;;;-1.55;100.00;97662.22;5030535;28;20387;-76
2022/01/31 05:33:54;;;;;;;44.30;21.55;;;;;;;-1.54;100.00;97666.53;5035386;28;20025;-76
2022/01/31 05:36:21;;;;;;;46.58;22.38;;;;;;;-1.56;100.00;97655.22;5052022;28;20017;-77
2022/01/31 05:38:47;;;;;;;50.85;22.90;;;;;;;-1.49;100.00;97664.00;5049897;28;20049;-75
2022/01/31 05:41:18;;;;;;;39.50;20.63;;;;;;;-1.52;100.00;97651.03;5049552;28;20060;-77
2022/01/31 05:43:44;;;;;;;46.65;23.20;;;;;;;-1.50;100.00;97648.16;5049065;28;20140;-76
2022/01/31 05:46:09;;;;;;;46.85;22.92;;;;;;;-1.43;100.00;97641.63;5050369;28;20108;-77
2022/01/31 05:48:35;;;;;;;46.58;22.77;;;;;;;-1.38;100.00;97630.25;5052202;28;20032;-77
2022/01/31 05:51:04;;;;;;;48.40;24.38;;;;;;;-1.37;100.00;97642.56;5054941;28;20029;-75
2022/01/31 05:53:30;;;;;;;45.75;22.23;;;;;;;-1.43;100.00;97622.84;5050145;28;20067;-76
2022/01/31 05:55:57;;;;;;;42.97;21.05;;;;;;;-1.36;100.00;97639.69;5048898;28;20124;-75
2022/01/31 05:58:23;;;;;;;47.95;21.25;;;;;;;-1.40;100.00;97641.19;5051248;28;20083;-76
2022/01/31 06:00:48;;;;;;;47.70;22.77;;;;;;;-1.38;100.00;97625.66;5050657;28;20032;-75
2022/01/31 06:03:14;;;;;;;49.45;22.55;;;;;;;-1.43;100.00;97614.81;5049909;28;20032;-75
2022/01/31 06:05:39;;;;;;;42.20;20.58;;;;;;;-1.51;100.00;97615.16;5050084;28;20017;-74
2022/01/31 06:08:05;;;;;;;46.35;21.27;;;;;;;-1.47;100.00;97619.00;5050108;28;20029;-75
2022/01/31 06:10:32;;;;;;;42.67;20.88;;;;;;;-1.53;100.00;97608.34;5049982;28;20535;-75
2022/01/31 06:12:58;;;;;;;45.08;20.85;;;;;;;-1.49;100.00;97605.00;5051223;28;20028;-76
2022/01/31 06:15:26;;;;;;;43.55;20.80;;;;;;;-1.40;100.00;97602.81;5049870;28;20389;-78
2022/01/31 06:17:51;;;;;;;36.75;19.80;;;;;;;-1.48;100.00;97590.56;5052236;28;20115;-74
2022/01/31 06:20:17;;;;;;;40.20;20.67;;;;;;;-1.53;100.00;97585.03;5052025;28;20108;-77
2022/01/31 06:22:45;;;;;;;43.38;22.38;;;;;;;-1.52;100.00;97592.06;5051092;28;20025;-75
2022/01/31 06:25:12;;;;;;;48.17;21.38;;;;;;;-1.54;100.00;97599.50;5051614;28;20028;-75
2022/01/31 06:27:37;;;;;;;46.72;21.42;;;;;;;-1.54;100.00;97572.72;5050065;28;20021;-78
2022/01/31 06:30:03;;;;;;;42.95;21.67;;;;;;;-1.43;100.00;97574.59;5051276;28;20033;-77
2022/01/31 06:32:28;;;;;;;44.25;21.98;;;;;;;-1.37;100.00;97572.84;5052092;28;20029;-82
2022/01/31 06:34:55;;;;;;;46.17;21.73;;;;;;;-1.36;100.00;97571.81;5050543;28;20037;-76
2022/01/31 06:37:20;;;;;;;47.90;22.23;;;;;;;-1.30;100.00;97566.34;5050136;28;20044;-76
2022/01/31 06:39:46;;;;;;;46.40;22.77;;;;;;;-1.28;100.00;97556.19;5051660;28;20397;-75
2022/01/31 06:42:12;;;;;;;48.67;22.13;;;;;;;-1.28;100.00;97545.47;5061884;28;20028;-76
2022/01/31 06:44:39;;;;;;;56.20;24.10;;;;;;;-1.31;100.00;97535.22;5058829;28;20040;-75
2022/01/31 06:47:05;;;;;;;52.95;24.33;;;;;;;-1.26;100.00;97535.34;5061191;28;20033;-76
2022/01/31 06:49:30;;;;;;;49.70;23.90;;;;;;;-1.22;100.00;97533.81;5056060;28;20036;-76
2022/01/31 06:51:56;;;;;;;47.97;25.25;;;;;;;-1.15;100.00;97512.25;5055243;28;20029;-75
2022/01/31 06:54:21;;;;;;;49.53;24.73;;;;;;;-0.99;100.00;97500.00;5052645;28;20021;-76
2022/01/31 06:56:47;;;;;;;49.20;22.92;;;;;;;-0.97;100.00;97481.84;5054047;28;20540;-75
2022/01/31 06:59:12;;;;;;;46.40;24.08;;;;;;;-0.97;100.00;97473.78;5055229;28;20025;-77
2022/01/31 07:01:38;;;;;;;49.55;24.75;;;;;;;-1.01;100.00;97467.25;5057266;28;20393;-74
2022/01/31 07:04:03;;;;;;;60.90;27.52;;;;;;;-0.96;100.00;97468.16;5053402;28;20478;-77
2022/01/31 07:06:29;;;;;;;62.08;30.52;;;;;;;-0.95;100.00;97463.63;5052859;28;20033;-77
2022/01/31 07:08:54;;;;;;;57.05;27.38;;;;;;;-0.85;100.00;97477.28;5051473;28;20474;-75
2022/01/31 07:11:22;;;;;;;51.78;25.83;;;;;;;-0.81;100.00;97467.69;5052147;28;20032;-74
2022/01/31 07:13:50;;;;;;;56.05;28.17;;;;;;;-0.78;100.00;97473.41;5053922;28;20052;-75
2022/01/31 07:16:15;;;;;;;68.13;30.02;;;;;;;-0.80;100.00;97466.63;5053475;28;20067;-75
2022/01/31 07:18:42;;;;;;;69.47;34.10;;;;;;;-0.87;100.00;97453.34;5053047;28;20390;-77
2022/01/31 07:21:12;;;;;;;64.03;32.40;;;;;;;-0.84;100.00;97452.03;5053303;28;20065;-75
2022/01/31 07:26:23;;;;;;;65.95;30.38;;;;;;;-0.78;100.00;97448.41;5050693;28;20041;-77
2022/01/31 07:28:49;;;;;;;72.43;31.70;;;;;;;-0.83;100.00;97433.03;5044609;28;20033;-75
2022/01/31 07:31:16;;;;;;;53.75;27.83;;;;;;;-0.85;100.00;97410.16;5033262;28;20040;-77
2022/01/31 07:33:42;;;;;;;55.17;28.38;;;;;;;-0.92;100.00;97404.94;5076493;28;20029;-75
2022/01/31 07:36:08;;;;;;;70.32;34.88;;;;;;;-0.87;100.00;97396.16;5054672;28;20029;-76
2022/01/31 07:38:34;;;;;;;58.90;28.60;;;;;;;-0.84;100.00;97391.13;5054894;28;20390;-77
2022/01/31 07:41:00;;;;;;;517.75;236.02;;;;;;;-0.82;100.00;97372.94;5053418;28;20036;-81
2022/01/31 07:43:25;;;;;;;61.05;34.45;;;;;;;-0.64;100.00;97388.06;5052953;28;20191;-77
2022/01/31 07:45:51;;;;;;;64.43;35.33;;;;;;;-0.62;100.00;97389.44;5053458;28;20025;-75
2022/01/31 07:48:16;;;;;;;61.40;33.08;;;;;;;-0.44;100.00;97412.63;5055835;28;20024;-78
2022/01/31 07:50:42;;;;;;;115.75;56.72;;;;;;;-0.31;100.00;97427.63;5054589;28;20470;-77
2022/01/31 07:53:09;;;;;;;91.03;58.03;;;;;;;-0.30;100.00;97424.72;5034749;28;20036;-76
2022/01/31 07:55:34;;;;;;;76.40;49.78;;;;;;;-0.18;100.00;97414.72;5054068;28;20017;-82
2022/01/31 07:58:00;;;;;;;66.65;44.15;;;;;;;-0.12;100.00;97404.88;5055460;28;20409;-79
2022/01/31 08:00:26;;;;;;;57.95;37.60;;;;;;;-0.15;100.00;97400.81;5057045;28;20494;-80
2022/01/31 08:02:53;;;;;;;52.30;32.83;;;;;;;-0.10;100.00;97397.41;5059557;28;20017;-80
2022/01/31 08:05:21;;;;;;;48.90;28.08;;;;;;;0.00;100.00;97403.00;5051563;28;20127;-76
2022/01/31 08:07:47;;;;;;;45.88;23.48;;;;;;;0.13;100.00;97393.78;5052739;28;20041;-78
2022/01/31 08:10:13;;;;;;;41.13;22.75;;;;;;;0.07;100.00;97386.69;5052599;28;20063;-76
2022/01/31 08:12:41;;;;;;;46.72;23.17;;;;;;;0.23;100.00;97402.00;5052308;28;20048;-78
2022/01/31 08:15:08;;;;;;;47.20;21.67;;;;;;;0.30;100.00;97391.94;5052425;28;20481;-77
2022/01/31 08:17:34;;;;;;;48.75;25.75;;;;;;;0.38;100.00;97383.44;5052760;28;20025;-81
2022/01/31 08:19:59;;;;;;;46.28;25.60;;;;;;;0.38;100.00;97386.94;5053650;28;20063;-78
2022/01/31 08:22:25;;;;;;;61.28;28.98;;;;;;;0.47;100.00;97377.41;5043624;28;20032;-77
2022/01/31 08:24:50;;;;;;;48.42;27.73;;;;;;;0.42;100.00;97373.84;5034317;28;20026;-80
2022/01/31 08:27:16;;;;;;;55.97;29.42;;;;;;;0.28;100.00;97373.34;5034159;28;20029;-77
2022/01/31 08:29:41;;;;;;;49.45;27.38;;;;;;;0.40;100.00;97367.88;5033727;28;20029;-76
2022/01/31 08:32:17;;;;;;;60.58;32.03;;;;;;;0.28;100.00;97367.16;5034122;28;20120;-77
2022/01/31 08:37:27;;;;;;;52.13;28.35;;;;;;;0.71;100.00;97335.00;5034072;28;20065;-79
2022/01/31 08:39:53;;;;;;;55.20;29.23;;;;;;;0.63;100.00;97321.16;5032668;28;20119;-78
2022/01/31 08:42:18;;;;;;;65.50;33.60;;;;;;;0.42;100.00;97309.28;5032030;28;20113;-76
2022/01/31 08:44:47;;;;;;;56.47;29.92;;;;;;;0.51;100.00;97294.34;5036993;28;20029;-78
2022/01/31 08:47:12;;;;;;;59.13;31.55;;;;;;;0.60;100.00;97305.50;5048893;28;20355;-75
2022/01/31 08:49:38;;;;;;;58.55;30.08;;;;;;;0.52;100.00;97277.16;5049185;28;20025;-77
2022/01/31 08:52:04;;;;;;;55.83;27.92;;;;;;;0.38;100.00;97270.47;5053159;28;20025;-75
2022/01/31 08:54:33;;;;;;;59.03;30.88;;;;;;;0.19;100.00;97259.19;5049936;28;20021;-76
2022/01/31 08:56:59;;;;;;;65.18;30.80;;;;;;;0.37;100.00;97241.97;5049521;28;20087;-76
2022/01/31 08:59:26;;;;;;;49.20;27.23;;;;;;;0.45;100.00;97244.22;5048985;28;20032;-75
2022/01/31 09:01:54;;;;;;;50.83;25.70;;;;;;;0.60;100.00;97251.69;5049521;28;20422;-76
2022/01/31 09:07:04;;;;;;;54.15;27.65;;;;;;;0.26;100.00;97242.88;5046770;28;20032;-74
2022/01/31 09:09:30;;;;;;;48.85;26.90;;;;;;;0.56;100.00;97246.00;5049914;28;20017;-75
2022/01/31 09:12:02;;;;;;;61.42;29.63;;;;;;;0.52;100.00;97239.50;5049626;28;20071;-73
2022/01/31 09:14:27;;;;;;;51.72;27.73;;;;;;;0.71;100.00;97229.25;5043428;28;20032;-77
2022/01/31 09:16:53;;;;;;;62.35;29.95;;;;;;;0.68;100.00;97241.31;5043401;28;20033;-76
2022/01/31 09:19:18;;;;;;;54.22;28.13;;;;;;;0.55;100.00;97244.38;5048275;28;20022;-76
2022/01/31 09:21:45;;;;;;;59.97;29.25;;;;;;;0.43;100.00;97222.16;5038484;28;20040;-76
2022/01/31 09:24:11;;;;;;;54.35;29.63;;;;;;;0.35;100.00;97211.81;5029984;28;20025;-76
2022/01/31 09:26:37;;;;;;;55.42;28.48;;;;;;;0.55;100.00;97212.09;5030609;28;20031;-75
2022/01/31 09:29:02;;;;;;;76.68;40.63;;;;;;;0.51;100.00;97210.97;5048465;28;20876;-76
2022/01/31 09:31:28;;;;;;;66.25;32.80;;;;;;;0.58;100.00;97211.59;5049402;28;20095;-77
2022/01/31 09:33:53;;;;;;;59.40;28.55;;;;;;;0.54;100.00;97211.28;5048964;28;20079;-75
2022/01/31 09:36:18;;;;;;;54.92;28.38;;;;;;;0.46;100.00;97208.22;5048562;28;20394;-75
2022/01/31 09:38:44;;;;;;;55.20;28.52;;;;;;;0.35;100.00;97203.75;5039222;28;20033;-75
2022/01/31 09:41:14;;;;;;;53.85;28.35;;;;;;;0.29;100.00;97213.63;5027044;28;20108;-76
2022/01/31 09:48:56;;;;;;;54.17;26.15;;;;;;;0.17;100.00;97187.91;5049701;28;20032;-77
2022/01/31 09:51:23;;;;;;;57.38;27.98;;;;;;;0.19;100.00;97180.44;5049586;28;20032;-75
2022/01/31 09:54:09;;;;;;;55.65;27.08;;;;;;;0.20;100.00;97185.56;5047292;28;20477;-76
2022/01/31 09:56:41;;;;;;;62.83;31.15;;;;;;;0.10;100.00;97192.66;5046882;28;20156;-76
2022/01/31 09:59:08;;;;;;;75.28;39.67;;;;;;;0.27;100.00;97194.25;5049828;28;20150;-75
2022/01/31 10:01:52;;;;;;;57.08;29.45;;;;;;;0.30;100.00;97176.81;5048500;28;20035;-75
2022/01/31 10:04:20;;;;;;;331.73;166.23;;;;;;;0.42;100.00;97169.44;5048005;28;20021;-75
2022/01/31 10:06:48;;;;;;;73.55;41.80;;;;;;;0.39;100.00;97143.03;5049217;28;20421;-77
2022/01/31 10:09:19;;;;;;;62.65;36.70;;;;;;;0.52;100.00;97153.41;5049712;28;20037;-78
2022/01/31 10:11:50;;;;;;;59.58;33.53;;;;;;;0.55;100.00;97144.84;5051484;28;20086;-74
2022/01/31 10:17:02;;;;;;;55.08;27.92;;;;;;;0.67;100.00;97133.94;5053136;28;20059;-76
2022/01/31 10:19:27;;;;;;;53.55;24.45;;;;;;;0.61;100.00;97124.19;5051975;28;20025;-76
2022/01/31 10:21:57;;;;;;;45.05;23.10;;;;;;;0.53;100.00;97103.94;5053098;28;20020;-76
2022/01/31 10:24:24;;;;;;;43.85;24.08;;;;;;;0.63;100.00;97100.56;5053109;28;20486;-75
2022/01/31 10:26:49;;;;;;;47.58;24.38;;;;;;;0.65;100.00;97099.22;5052584;28;20466;-75
2022/01/31 10:29:17;;;;;;;46.15;23.58;;;;;;;0.63;100.00;97085.19;5052960;28;20032;-74
2022/01/31 10:31:56;;;;;;;48.45;24.77;;;;;;;0.71;100.00;97076.69;5051391;28;20037;-75
2022/01/31 10:34:24;;;;;;;47.13;25.95;;;;;;;0.67;100.00;97059.41;5053065;28;20068;-74
2022/01/31 10:36:50;;;;;;;49.25;28.08;;;;;;;0.65;100.00;97064.25;5051719;28;20063;-72
2022/01/31 10:43:25;;;;;;;55.25;29.33;;;;;;;0.54;100.00;97059.81;5042672;28;20056;-74
2022/01/31 10:45:26;;;;;;;58.30;30.55;;;;;;;0.65;100.00;97044.59;5054357;28;20447;-77
2022/01/31 10:56:54;;;;;;;64.20;33.80;;;;;;;0.81;100.00;97022.97;5052366;28;20053;-75
2022/01/31 10:59:24;;;;;;;61.35;33.08;;;;;;;0.80;100.00;97010.56;5052799;28;20032;-75
2022/01/31 11:01:53;;;;;;;65.22;34.33;;;;;;;0.91;100.00;97012.25;5043718;28;20040;-77
2022/01/31 11:04:19;;;;;;;61.15;32.53;;;;;;;0.96;100.00;97006.94;5034634;28;20044;-75
2022/01/31 11:06:47;;;;;;;62.55;32.20;;;;;;;0.91;100.00;97008.75;5054723;28;20017;-78
2022/01/31 11:09:17;;;;;;;58.53;30.60;;;;;;;0.92;100.00;96997.75;5052626;28;20029;-76
2022/01/31 11:11:45;;;;;;;61.25;31.05;;;;;;;0.95;100.00;96997.22;5047575;28;20044;-83
2022/01/31 11:14:12;;;;;;;57.13;31.98;;;;;;;0.95;100.00;97001.78;5046357;28;20021;-75
2022/01/31 11:16:40;;;;;;;62.50;31.55;;;;;;;0.97;100.00;96988.91;5042231;28;20033;-77
2022/01/31 11:19:08;;;;;;;68.03;32.53;;;;;;;1.02;100.00;96997.00;5052048;28;20110;-75
2022/01/31 11:21:36;;;;;;;63.50;31.75;;;;;;;1.15;100.00;96985.00;5053157;28;20021;-75
2022/01/31 11:24:11;;;;;;;64.63;31.17;;;;;;;1.08;100.00;96982.50;5051055;28;20025;-76
2022/01/31 11:26:41;;;;;;;59.53;30.38;;;;;;;0.98;100.00;96987.81;5052286;28;20482;-76
2022/01/31 11:29:08;;;;;;;62.35;30.90;;;;;;;0.94;100.00;96981.34;5051259;28;20037;-76
2022/01/31 11:31:38;;;;;;;59.38;31.90;;;;;;;0.93;100.00;96975.16;5053215;28;20097;-77
2022/01/31 11:34:07;;;;;;;61.67;30.05;;;;;;;0.86;100.00;96962.97;5052518;28;20032;-78
2022/01/31 11:36:38;;;;;;;53.63;27.33;;;;;;;0.94;100.00;96962.50;5053580;28;20033;-75
2022/01/31 11:39:09;;;;;;;53.88;26.77;;;;;;;0.81;100.00;96968.34;5054116;28;20025;-76
2022/01/31 11:41:38;;;;;;;60.20;27.67;;;;;;;0.86;100.00;96971.88;5053262;28;20068;-75